createdAt,value
2019-04-26T00:00:49.753Z,94697.17
2019-04-26T00:03:20.050Z,94702.69
2019-04-26T00:05:48.747Z,94707.83
2019-04-26T00:08:17.949Z,94702.91
2019-04-26T00:10:57.238Z,94693.95
2019-04-26T00:13:33.246Z,94696.66
2019-04-26T00:16:03.831Z,94690.70
2019-04-26T00:18:32.631Z,94690.13
2019-04-26T00:21:01.330Z,94687.65
2019-04-26T00:23:30.757Z,94685.73
2019-04-26T00:25:59.625Z,94685.40
2019-04-26T00:28:28.320Z,94678.23
2019-04-26T00:30:57.060Z,94678.74
2019-04-26T00:33:25.757Z,94671.75
2019-04-26T00:35:54.459Z,94669.05
2019-04-26T00:38:23.288Z,94663.40
2019-04-26T00:40:52.885Z,94670.34
2019-04-26T00:43:22.685Z,94667.01
2019-04-26T00:45:52.785Z,94655.84
2019-04-26T00:48:23.848Z,94660.96
2019-04-26T00:50:53.649Z,94664.92
2019-04-26T00:53:24.405Z,94668.23
2019-04-26T00:55:53.900Z,94670.44
2019-04-26T00:58:24.463Z,94663.78
2019-04-26T01:00:53.845Z,94669.97
2019-04-26T01:03:22.813Z,94666.27
2019-04-26T01:05:59.820Z,94671.88
2019-04-26T01:08:21.978Z,94664.83
2019-04-26T01:10:50.683Z,94679.88
2019-04-26T01:13:19.946Z,94668.35
2019-04-26T01:15:49.097Z,94669.68
2019-04-26T01:18:18.219Z,94665.47
2019-04-26T01:20:49.316Z,94665.80
2019-04-26T01:23:20.941Z,94662.07
2019-04-26T01:26:12.021Z,94664.08
2019-04-26T01:28:43.652Z,94658.84
2019-04-26T01:31:13.763Z,94662.06
2019-04-26T01:33:44.639Z,94657.80
2019-04-26T01:36:13.862Z,94649.62
2019-04-26T01:38:44.408Z,94652.09
2019-04-26T01:41:17.149Z,94650.18
2019-04-26T01:43:54.879Z,94650.00
2019-04-26T01:46:33.979Z,94651.31
2019-04-26T01:49:08.288Z,94645.85
2019-04-26T01:51:45.340Z,94649.63
2019-04-26T01:54:16.936Z,94644.03
2019-04-26T01:56:46.531Z,94647.14
2019-04-26T01:59:17.288Z,94640.80
2019-04-26T02:02:02.998Z,94646.53
2019-04-26T02:04:33.524Z,94649.17
2019-04-26T02:07:02.595Z,94642.33
2019-04-26T02:09:31.390Z,94645.59
2019-04-26T02:12:00.737Z,94650.42
2019-04-26T02:14:29.536Z,94652.80
2019-04-26T02:16:59.058Z,94640.98
2019-04-26T02:19:27.721Z,94641.20
2019-04-26T02:22:07.010Z,94645.59
2019-04-26T02:24:37.304Z,94642.17
2019-04-26T02:27:07.669Z,94639.44
2019-04-26T02:29:36.293Z,94630.77
2019-04-26T02:32:07.432Z,94634.77
2019-04-26T02:34:38.050Z,94635.86
2019-04-26T02:37:10.205Z,94634.55
2019-04-26T02:39:41.221Z,94632.82
2019-04-26T02:42:31.005Z,94624.48
2019-04-26T02:45:04.015Z,94624.64
2019-04-26T02:47:39.028Z,94628.98
2019-04-26T02:50:14.686Z,94625.89
2019-04-26T02:52:48.902Z,94625.32
2019-04-26T02:55:42.413Z,94631.35
2019-04-26T02:58:12.477Z,94626.07
2019-04-26T03:00:42.522Z,94635.61
2019-04-26T03:03:12.047Z,94630.63
2019-04-26T03:05:42.848Z,94632.03
2019-04-26T03:08:14.447Z,94633.23
2019-04-26T03:10:45.239Z,94626.50
2019-04-26T03:13:18.413Z,94627.69
2019-04-26T03:15:51.615Z,94630.46
2019-04-26T03:18:41.565Z,94628.97
2019-04-26T03:21:28.729Z,94621.37
2019-04-26T03:24:00.334Z,94627.72
2019-04-26T03:26:52.787Z,94625.00
2019-04-26T03:29:27.040Z,94630.36
2019-04-26T03:32:16.628Z,94639.05
2019-04-26T03:34:54.943Z,94648.48
2019-04-26T03:37:33.744Z,94644.86
2019-04-26T03:40:18.042Z,94656.77
2019-04-26T03:43:04.626Z,94657.43
2019-04-26T03:45:40.882Z,94663.25
2019-04-26T03:48:27.444Z,94664.59
2019-04-26T03:51:08.014Z,94664.25
2019-04-26T03:53:40.404Z,94664.59
2019-04-26T03:56:17.424Z,94660.96
2019-04-26T03:59:02.223Z,94661.26
2019-04-26T04:01:39.579Z,94665.16
2019-04-26T04:04:11.979Z,94667.34
2019-04-26T04:06:56.735Z,94662.36
2019-04-26T04:09:11.716Z,94667.80
2019-04-26T04:11:49.920Z,94673.52
2019-04-26T04:14:27.410Z,94667.30
2019-04-26T04:17:09.291Z,94664.28
2019-04-26T04:19:54.265Z,94666.16
2019-04-26T04:22:25.744Z,94665.10
2019-04-26T04:25:06.459Z,94666.11
2019-04-26T04:27:47.956Z,94671.16
2019-04-26T04:30:20.394Z,94672.41
2019-04-26T04:33:24.840Z,94676.33
2019-04-26T04:35:56.454Z,94670.20
2019-04-26T04:38:34.006Z,94671.75
2019-04-26T04:41:22.284Z,94674.71
2019-04-26T04:44:16.413Z,94676.67
2019-04-26T04:47:23.644Z,94680.80
2019-04-26T04:49:59.461Z,94674.58
2019-04-26T04:52:33.663Z,94675.88
2019-04-26T04:55:24.637Z,94677.14
2019-04-26T04:58:05.256Z,94683.29
2019-04-26T05:01:11.253Z,94681.52
2019-04-26T05:03:46.974Z,94679.63
2019-04-26T05:06:41.133Z,94685.05
2019-04-26T05:09:12.742Z,94685.44
2019-04-26T05:11:59.030Z,94685.05
2019-04-26T05:14:33.592Z,94684.22
2019-04-26T05:17:16.929Z,94683.39
2019-04-26T05:19:54.858Z,94687.34
2019-04-26T05:22:35.440Z,94685.70
2019-04-26T05:25:11.134Z,94692.39
2019-04-26T05:27:44.344Z,94684.98
2019-04-26T05:30:23.122Z,94684.14
2019-04-26T05:33:18.667Z,94680.70
2019-04-26T05:35:57.781Z,94676.19
2019-04-26T05:38:41.347Z,94676.92
2019-04-26T05:41:30.155Z,94681.34
2019-04-26T05:44:17.980Z,94687.75
2019-04-26T05:47:25.383Z,94681.94
2019-04-26T05:50:30.051Z,94679.39
2019-04-26T05:53:31.324Z,94686.91
2019-04-26T05:56:22.639Z,94683.36
2019-04-26T05:59:15.367Z,94681.91
2019-04-26T06:02:34.543Z,94684.20
2019-04-26T06:05:32.589Z,94690.73
2019-04-26T06:08:31.534Z,94680.50
2019-04-26T06:11:06.994Z,94682.08
2019-04-26T06:13:49.197Z,94684.64
2019-04-26T06:16:40.021Z,94688.87
2019-04-26T06:19:19.117Z,94677.08
2019-04-26T06:22:00.037Z,94682.05
2019-04-26T06:24:46.585Z,94679.56
2019-04-26T06:27:28.688Z,94686.69
2019-04-26T06:30:12.155Z,94679.38
2019-04-26T06:32:55.923Z,94681.02
2019-04-26T06:35:20.414Z,94675.83
2019-04-26T06:38:05.426Z,94672.71
2019-04-26T06:41:00.198Z,94676.23
2019-04-26T06:43:33.412Z,94676.56
2019-04-26T06:46:38.025Z,94671.80
2019-04-26T06:49:29.109Z,94677.04
2019-04-26T06:52:12.718Z,94666.86
2019-04-26T06:55:11.188Z,94663.09
2019-04-26T06:57:59.980Z,94663.72
2019-04-26T07:00:42.858Z,94661.83
2019-04-26T07:03:29.562Z,94661.36
2019-04-26T07:06:04.966Z,94656.39
2019-04-26T07:08:57.309Z,94655.09
2019-04-26T07:11:51.596Z,94652.53
2019-04-26T07:14:42.292Z,94651.59
2019-04-26T07:17:31.561Z,94644.95
2019-04-26T07:20:21.662Z,94649.84
2019-04-26T07:23:11.022Z,94647.50
2019-04-26T07:26:15.462Z,94645.02
2019-04-26T07:29:07.028Z,94646.62
2019-04-26T07:31:57.842Z,94649.91
2019-04-26T07:34:43.002Z,94644.66
2019-04-26T07:37:43.261Z,94643.55
2019-04-26T07:40:28.072Z,94642.84
2019-04-26T07:43:26.670Z,94634.77
2019-04-26T07:46:29.684Z,94636.20
2019-04-26T07:49:13.459Z,94634.26
2019-04-26T07:52:04.347Z,94634.28
2019-04-26T07:55:08.698Z,94631.56
2019-04-26T07:58:06.895Z,94633.91
2019-04-26T08:00:44.999Z,94639.70
2019-04-26T08:03:29.475Z,94634.13
2019-04-26T08:06:15.843Z,94634.63
2019-04-26T08:08:48.430Z,94634.10
2019-04-26T08:11:22.627Z,94628.69
2019-04-26T08:14:15.136Z,94634.28
2019-04-26T08:16:54.101Z,94628.61
2019-04-26T08:19:26.115Z,94628.08
2019-04-26T08:22:11.459Z,94625.58
2019-04-26T08:24:30.648Z,94629.00
2019-04-26T08:27:13.416Z,94623.78
2019-04-26T08:29:38.205Z,94625.36
2019-04-26T08:32:11.730Z,94620.53
2019-04-26T08:34:43.477Z,94625.89
2019-04-26T08:37:36.610Z,94623.77
2019-04-26T08:40:05.882Z,94626.19
2019-04-26T08:42:37.645Z,94630.17
2019-04-26T08:45:14.915Z,94618.19
2019-04-26T08:47:50.854Z,94619.55
2019-04-26T08:50:22.272Z,94622.06
2019-04-26T08:52:52.734Z,94615.20
2019-04-26T08:55:22.633Z,94615.15
2019-04-26T08:57:54.266Z,94613.15
2019-04-26T09:00:35.224Z,94615.13
2019-04-26T09:03:11.717Z,94607.92
2019-04-26T09:05:49.985Z,94603.78
2019-04-26T09:08:20.419Z,94607.56
2019-04-26T09:10:52.568Z,94599.55
2019-04-26T09:13:24.163Z,94601.36
2019-04-26T09:16:04.857Z,94590.00
2019-04-26T09:18:43.004Z,94590.17
2019-04-26T09:21:04.281Z,94583.69
2019-04-26T09:23:40.181Z,94579.75
2019-04-26T09:26:13.611Z,94576.02
2019-04-26T09:28:43.982Z,94570.16
2019-04-26T09:31:30.212Z,94562.52
2019-04-26T09:34:12.240Z,94561.77
2019-04-26T09:36:40.938Z,94555.56
2019-04-26T09:39:11.299Z,94557.84
2019-04-26T09:41:40.360Z,94552.13
2019-04-26T09:44:10.630Z,94551.03
2019-04-26T09:46:54.272Z,94551.03
2019-04-26T09:49:30.645Z,94544.55
2019-04-26T09:52:00.183Z,94540.51
2019-04-26T09:54:28.815Z,94532.98
2019-04-26T09:56:57.435Z,94536.03
2019-04-26T09:59:26.259Z,94530.70
2019-04-26T10:01:55.405Z,94531.38
2019-04-26T10:04:25.433Z,94516.24
2019-04-26T10:06:54.100Z,94514.23
2019-04-26T10:09:24.191Z,94511.20
2019-04-26T10:11:58.277Z,94506.15
2019-04-26T10:14:28.577Z,94510.69
2019-04-26T10:16:58.994Z,94499.34
2019-04-26T10:19:45.489Z,94500.77
2019-04-26T10:22:14.179Z,94500.42
2019-04-26T10:24:42.875Z,94496.92
2019-04-26T10:27:11.607Z,94488.89
2019-04-26T10:29:40.304Z,94490.63
2019-04-26T10:32:09.304Z,94487.01
2019-04-26T10:34:38.035Z,94480.44
2019-04-26T10:37:07.995Z,94479.56
2019-04-26T10:39:37.103Z,94477.60
2019-04-26T10:42:05.907Z,94469.90
2019-04-26T10:44:35.774Z,94471.96
2019-04-26T10:47:06.041Z,94465.84
2019-04-26T10:49:46.400Z,94460.70
2019-04-26T10:52:17.959Z,94456.23
2019-04-26T10:55:04.454Z,94457.71
2019-04-26T10:57:34.720Z,94455.67
2019-04-26T11:00:04.983Z,94457.73
2019-04-26T11:02:33.715Z,94452.45
2019-04-26T11:05:02.406Z,94454.16
2019-04-26T11:07:31.034Z,94441.91
2019-04-26T11:10:02.818Z,94436.92
2019-04-26T11:12:30.948Z,94442.98
2019-04-26T11:14:59.684Z,94435.84
2019-04-26T11:17:28.420Z,94438.94
2019-04-26T11:19:57.132Z,94435.65
2019-04-26T11:22:29.309Z,94436.59
2019-04-26T11:24:56.406Z,94433.32
2019-04-26T11:27:25.040Z,94437.28
2019-04-26T11:29:54.284Z,94428.02
2019-04-26T11:32:23.047Z,94432.02
2019-04-26T11:34:54.562Z,94433.00
2019-04-26T11:37:22.165Z,94422.58
2019-04-26T11:39:50.924Z,94432.81
2019-04-26T11:42:19.690Z,94428.30
2019-04-26T11:44:48.394Z,94426.58
2019-04-26T11:47:17.130Z,94413.34
2019-04-26T11:49:45.825Z,94417.72
2019-04-26T11:52:14.527Z,94422.11
2019-04-26T11:54:43.271Z,94421.22
2019-04-26T11:57:13.519Z,94422.94
2019-04-26T11:59:42.355Z,94423.34
2019-04-26T12:02:12.339Z,94415.80
2019-04-26T12:04:43.073Z,94412.77
2019-04-26T12:07:29.596Z,94406.91
2019-04-26T12:09:59.856Z,94400.28
2019-04-26T12:12:28.553Z,94396.58
2019-04-26T12:14:58.123Z,94385.28
2019-04-26T12:17:27.179Z,94386.01
2019-04-26T12:19:55.902Z,94387.00
2019-04-26T12:22:24.634Z,94383.21
2019-04-26T12:24:53.336Z,94379.19
2019-04-26T12:27:22.240Z,94373.77
2019-04-26T12:29:51.007Z,94372.41
2019-04-26T12:32:19.706Z,94372.06
2019-04-26T12:34:48.406Z,94363.92
2019-04-26T12:37:19.861Z,94349.23
2019-04-26T12:39:47.552Z,94355.26
2019-04-26T12:42:16.756Z,94350.89
2019-04-26T12:44:49.769Z,94357.59
2019-04-26T12:47:25.739Z,94352.14
2019-04-26T12:49:58.549Z,94352.87
2019-04-26T12:52:24.817Z,94352.53
2019-04-26T12:54:53.515Z,94345.82
2019-04-26T12:57:23.183Z,94334.75
2019-04-26T12:59:51.881Z,94331.86
2019-04-26T13:02:21.865Z,94330.53
2019-04-26T13:04:50.616Z,94332.59
2019-04-26T13:07:23.959Z,94329.66
2019-04-26T13:10:09.142Z,94326.84
2019-04-26T13:12:39.405Z,94326.28
2019-04-26T13:16:02.925Z,94327.88
2019-04-26T13:18:32.121Z,94322.05
2019-04-26T13:21:02.973Z,94320.45
2019-04-26T13:23:31.420Z,94324.64
2019-04-26T13:26:01.561Z,94320.26
2019-04-26T13:28:30.314Z,94311.45
2019-04-26T13:31:02.031Z,94320.83
2019-04-26T13:33:29.408Z,94318.06
2019-04-26T13:36:05.412Z,94317.70
2019-04-26T13:38:28.489Z,94307.56
2019-04-26T13:40:59.646Z,94303.17
2019-04-26T13:43:28.777Z,94300.15
2019-04-26T13:46:15.376Z,94299.52
2019-04-26T13:48:51.589Z,94302.02
2019-04-26T13:51:33.965Z,94298.87
2019-04-26T13:54:02.666Z,94288.98
2019-04-26T13:56:32.058Z,94300.84
2019-04-26T13:59:01.746Z,94295.05
2019-04-26T14:01:30.438Z,94287.67
2019-04-26T14:04:02.426Z,94289.83
2019-04-26T14:06:29.644Z,94286.45
2019-04-26T14:09:02.724Z,94284.15
2019-04-26T14:11:29.581Z,94287.44
2019-04-26T14:14:00.150Z,94283.18
2019-04-26T14:16:29.559Z,94281.98
2019-04-26T14:18:58.258Z,94278.90
2019-04-26T14:21:29.140Z,94280.35
2019-04-26T14:24:14.079Z,94282.45
2019-04-26T14:26:44.372Z,94278.93
2019-04-26T14:29:12.997Z,94275.30
2019-04-26T14:31:41.699Z,94277.11
2019-04-26T14:34:12.037Z,94271.38
2019-04-26T14:36:43.606Z,94277.47
2019-04-26T14:39:14.898Z,94274.25
2019-04-26T14:41:41.892Z,94273.81
2019-04-26T14:44:15.609Z,94269.68
2019-04-26T14:46:48.561Z,94263.96
2019-04-26T14:49:11.453Z,94273.27
2019-04-26T14:51:40.690Z,94261.39
2019-04-26T14:54:11.540Z,94263.14
2019-04-26T14:56:51.765Z,94258.00
2019-04-26T14:59:11.889Z,94260.77
2019-04-26T15:01:45.427Z,94257.98
2019-04-26T15:04:33.066Z,94256.02
2019-04-26T15:07:04.005Z,94256.22
2019-04-26T15:09:34.700Z,94258.14
2019-04-26T15:12:03.526Z,94252.88
2019-04-26T15:14:33.255Z,94252.72
2019-04-26T15:17:02.897Z,94258.45
2019-04-26T15:19:34.896Z,94257.50
2019-04-26T15:22:04.106Z,94257.25
2019-04-26T15:24:35.164Z,94256.36
2019-04-26T15:27:03.365Z,94252.47
2019-04-26T15:29:32.602Z,94249.83
2019-04-26T15:32:04.819Z,94250.31
2019-04-26T15:34:31.650Z,94246.52
2019-04-26T15:37:00.379Z,94247.90
2019-04-26T15:39:36.526Z,94246.13
2019-04-26T15:42:18.955Z,94243.08
2019-04-26T15:45:04.323Z,94242.30
2019-04-26T15:47:34.644Z,94249.13
2019-04-26T15:50:10.043Z,94242.34
2019-04-26T15:52:38.562Z,94244.69
2019-04-26T15:55:07.399Z,94242.06
2019-04-26T15:57:36.107Z,94245.91
2019-04-26T16:00:07.201Z,94247.08
2019-04-26T16:02:36.093Z,94235.67
2019-04-26T16:05:06.293Z,94242.02
2019-04-26T16:07:35.003Z,94239.47
2019-04-26T16:10:04.532Z,94234.73
2019-04-26T16:12:33.238Z,94243.11
2019-04-26T16:15:02.405Z,94232.00
2019-04-26T16:17:31.251Z,94233.41
2019-04-26T16:20:01.833Z,94231.61
2019-04-26T16:22:32.750Z,94229.19
2019-04-26T16:25:04.063Z,94227.08
2019-04-26T16:27:34.174Z,94221.89
2019-04-26T16:30:06.410Z,94222.68
2019-04-26T16:32:39.659Z,94225.90
2019-04-26T16:35:08.362Z,94230.59
2019-04-26T16:37:37.096Z,94222.89
2019-04-26T16:40:07.912Z,94218.89
2019-04-26T16:42:37.808Z,94216.69
2019-04-26T16:45:08.434Z,94220.20
2019-04-26T16:47:44.990Z,94219.02
2019-04-26T16:50:08.434Z,94213.99
2019-04-26T16:52:42.276Z,94221.58
2019-04-26T16:55:18.302Z,94223.04
2019-04-26T16:57:44.006Z,94223.45
2019-04-26T17:00:08.765Z,94221.66
2019-04-26T17:02:37.499Z,94220.73
2019-04-26T17:05:19.204Z,94218.92
2019-04-26T17:07:39.414Z,94216.70
2019-04-26T17:10:08.197Z,94217.41
2019-04-26T17:12:36.965Z,94216.11
2019-04-26T17:15:07.804Z,94222.41
2019-04-26T17:17:36.493Z,94210.66
2019-04-26T17:20:10.860Z,94211.41
2019-04-26T17:22:58.586Z,94206.74
2019-04-26T17:25:26.872Z,94207.17
2019-04-26T17:27:54.533Z,94214.91
2019-04-26T17:30:24.796Z,94213.22
2019-04-26T17:32:55.194Z,94212.94
2019-04-26T17:35:25.399Z,94216.52
2019-04-26T17:37:57.390Z,94211.62
2019-04-26T17:40:25.437Z,94210.80
2019-04-26T17:42:55.137Z,94220.14
2019-04-26T17:45:23.762Z,94225.50
2019-04-26T17:47:52.982Z,94230.33
2019-04-26T17:50:21.821Z,94233.43
2019-04-26T17:52:51.566Z,94241.34
2019-04-26T17:55:20.398Z,94244.22
2019-04-26T17:57:50.674Z,94244.88
2019-04-26T18:00:27.469Z,94252.73
2019-04-26T18:02:51.720Z,94257.98
2019-04-26T18:05:23.188Z,94254.37
2019-04-26T18:07:58.375Z,94252.29
2019-04-26T18:10:21.715Z,94266.34
2019-04-26T18:12:50.852Z,94273.88
2019-04-26T18:15:19.705Z,94271.95
2019-04-26T18:17:53.171Z,94279.72
2019-04-26T18:20:33.538Z,94273.75
2019-04-26T18:23:10.084Z,94277.05
2019-04-26T18:25:37.235Z,94278.47
2019-04-26T18:28:08.768Z,94281.37
2019-04-26T18:30:36.356Z,94288.33
2019-04-26T18:33:05.235Z,94292.71
2019-04-26T18:35:33.941Z,94302.47
2019-04-26T18:38:03.735Z,94299.91
2019-04-26T18:40:38.989Z,94304.47
2019-04-26T18:43:03.394Z,94301.99
2019-04-26T18:45:32.188Z,94303.78
2019-04-26T18:48:01.941Z,94302.73
2019-04-26T18:50:32.833Z,94307.16
2019-04-26T18:53:03.531Z,94309.24
2019-04-26T18:55:34.484Z,94314.94
2019-04-26T18:58:06.145Z,94312.09
2019-04-26T19:00:36.507Z,94314.27
2019-04-26T19:03:05.977Z,94316.89
2019-04-26T19:05:34.767Z,94317.63
2019-04-26T19:08:05.137Z,94314.77
2019-04-26T19:10:34.450Z,94316.64
2019-04-26T19:13:07.800Z,94315.58
2019-04-26T19:15:44.026Z,94316.70
2019-04-26T19:18:32.124Z,94321.60
2019-04-26T19:21:11.562Z,94321.39
2019-04-26T19:23:41.550Z,94320.72
2019-04-26T19:26:13.748Z,94321.73
2019-04-26T19:28:42.912Z,94317.72
2019-04-26T19:31:12.779Z,94315.59
2019-04-26T19:33:42.821Z,94316.45
2019-04-26T19:36:13.580Z,94313.09
2019-04-26T19:38:45.182Z,94311.79
2019-04-26T19:41:12.771Z,94312.08
2019-04-26T19:43:43.653Z,94313.63
2019-04-26T19:46:17.105Z,94313.81
2019-04-26T19:49:03.357Z,94316.42
2019-04-26T19:51:36.531Z,94312.73
2019-04-26T19:54:06.832Z,94310.02
2019-04-26T19:56:37.102Z,94306.66
2019-04-26T19:59:05.802Z,94305.80
2019-04-26T20:01:34.635Z,94306.22
2019-04-26T20:04:03.270Z,94309.52
2019-04-26T20:06:32.202Z,94299.02
2019-04-26T20:09:02.437Z,94301.50
2019-04-26T20:11:31.691Z,94295.76
2019-04-26T20:14:01.125Z,94299.45
2019-04-26T20:16:32.457Z,94301.80
2019-04-26T20:19:01.385Z,94296.64
2019-04-26T20:21:32.614Z,94297.62
2019-04-26T20:24:01.308Z,94307.92
2019-04-26T20:26:31.502Z,94304.86
2019-04-26T20:29:00.278Z,94304.05
2019-04-26T20:31:30.751Z,94305.92
2019-04-26T20:34:01.535Z,94313.58
2019-04-26T20:36:37.181Z,94308.41
2019-04-26T20:39:01.777Z,94302.02
2019-04-26T20:41:32.209Z,94303.95
2019-04-26T20:44:07.346Z,94302.83
2019-04-26T20:46:34.351Z,94301.28
2019-04-26T20:49:07.843Z,94302.83
2019-04-26T20:51:32.391Z,94302.25
2019-04-26T20:54:02.033Z,94298.77
2019-04-26T20:56:31.775Z,94302.61
2019-04-26T20:59:01.545Z,94302.67
2019-04-26T21:01:32.012Z,94291.06
2019-04-26T21:04:02.030Z,94299.84
2019-04-26T21:06:33.880Z,94301.85
2019-04-26T21:09:03.287Z,94298.59
2019-04-26T21:11:37.237Z,94301.47
2019-04-26T21:14:07.495Z,94304.09
2019-04-26T21:16:32.581Z,94303.27
2019-04-26T21:19:01.843Z,94309.59
2019-04-26T21:21:32.105Z,94313.03
2019-04-26T21:24:03.651Z,94305.45
2019-04-26T21:26:51.418Z,94313.64
2019-04-26T21:29:31.677Z,94314.61
2019-04-26T21:32:21.935Z,94312.23
2019-04-26T21:34:53.839Z,94308.16
2019-04-26T21:37:30.182Z,94311.62
2019-04-26T21:40:16.158Z,94315.33
2019-04-26T21:42:45.081Z,94317.13
2019-04-26T21:45:13.449Z,94315.03
2019-04-26T21:47:43.480Z,94309.94
2019-04-26T21:50:13.559Z,94304.16
2019-04-26T21:52:43.337Z,94308.44
2019-04-26T21:55:12.867Z,94305.22
2019-04-26T21:57:41.565Z,94316.01
2019-04-26T22:00:28.421Z,94315.81
2019-04-26T22:02:57.234Z,94315.50
2019-04-26T22:05:25.932Z,94312.23
2019-04-26T22:07:54.672Z,94321.97
2019-04-26T22:10:33.851Z,94315.78
2019-04-26T22:13:05.662Z,94320.22
2019-04-26T22:15:43.806Z,94319.22
2019-04-26T22:18:30.673Z,94319.63
2019-04-26T22:21:03.659Z,94318.13
2019-04-26T22:23:53.184Z,94320.66
2019-04-26T22:26:23.678Z,94317.83
2019-04-26T22:28:53.385Z,94320.36
2019-04-26T22:31:23.716Z,94319.74
2019-04-26T22:33:52.812Z,94307.92
2019-04-26T22:36:23.336Z,94307.92
2019-04-26T22:38:55.631Z,94308.75
2019-04-26T22:41:24.378Z,94314.02
2019-04-26T22:43:55.259Z,94307.59
2019-04-26T22:46:44.409Z,94309.13
2019-04-26T22:49:05.778Z,94308.55
2019-04-26T22:51:37.077Z,94307.42
2019-04-26T22:54:06.219Z,94306.55
2019-04-26T22:56:37.222Z,94300.69
2019-04-26T22:59:07.626Z,94300.25
2019-04-26T23:01:39.301Z,94301.78
2019-04-26T23:04:05.737Z,94300.63
2019-04-26T23:06:34.433Z,94298.15
2019-04-26T23:09:03.157Z,94296.37
2019-04-26T23:11:33.314Z,94295.05
2019-04-26T23:14:19.770Z,94295.42
2019-04-26T23:17:05.900Z,94291.97
2019-04-26T23:19:28.295Z,94289.09
2019-04-26T23:21:58.575Z,94286.95
2019-04-26T23:24:27.254Z,94280.99
2019-04-26T23:26:56.010Z,94283.69
2019-04-26T23:29:24.701Z,94281.75
2019-04-26T23:31:55.363Z,94284.28
2019-04-26T23:34:25.232Z,94276.94
2019-04-26T23:36:54.157Z,94275.23
2019-04-26T23:39:24.558Z,94272.89
2019-04-26T23:41:53.956Z,94277.94
2019-04-26T23:44:23.260Z,94270.03
2019-04-26T23:46:54.872Z,94263.45
2019-04-26T23:49:23.317Z,94268.88
2019-04-26T23:51:53.333Z,94259.41
2019-04-26T23:54:23.720Z,94260.97
2019-04-26T23:56:55.748Z,94257.08
2019-04-26T23:59:24.672Z,94254.79
